Time;durP1;ratioP1;P1;durP2;ratioP2;P2;SDS_P1;SDS_P2;PMS_P1;PMS_P2;Temp;Humidity;BMP_temperature;BMP_pressure;BME280_temperature;BME280_humidity;BME280_pressure;Samples;Min_cycle;Max_cycle;Signal;HPM_P1;HPM_P2
2024/01/05 00:01:43;;;;;;;4.45;2.42;;;5.10;60.60;;;;;;5007183;28;114491;-82
2024/01/05 00:04:11;;;;;;;4.93;2.90;;;5.10;60.40;;;;;;5006009;28;115006;-81
2024/01/05 00:06:38;;;;;;;4.82;3.00;;;5.10;60.40;;;;;;4971573;28;114576;-80
2024/01/05 00:09:06;;;;;;;6.05;3.42;;;5.10;60.30;;;;;;5006697;28;114571;-81
2024/01/05 00:11:33;;;;;;;6.90;3.65;;;5.00;60.00;;;;;;4988912;28;114623;-81
2024/01/05 00:14:02;;;;;;;5.85;3.40;;;4.90;60.10;;;;;;5005968;28;114978;-81
2024/01/05 00:16:29;;;;;;;5.15;3.22;;;4.90;59.90;;;;;;5004810;28;116017;-81
2024/01/05 00:18:56;;;;;;;4.88;3.00;;;4.80;59.80;;;;;;5005180;28;114584;-82
2024/01/05 00:21:27;;;;;;;6.47;3.70;;;4.60;60.10;;;;;;4989193;28;114597;-82
2024/01/05 00:23:56;;;;;;;6.80;3.40;;;4.60;60.30;;;;;;4971253;28;116306;-81
2024/01/05 00:26:25;;;;;;;5.85;3.55;;;4.60;60.40;;;;;;5005651;28;114689;-81
2024/01/05 00:28:54;;;;;;;5.45;3.03;;;4.60;60.40;;;;;;5007505;28;114344;-81
2024/01/05 00:31:22;;;;;;;5.00;3.10;;;4.70;60.40;;;;;;5029038;28;114261;-81
2024/01/05 00:33:50;;;;;;;6.07;3.10;;;4.60;60.70;;;;;;5011027;28;114824;-82
2024/01/05 00:36:17;;;;;;;6.07;2.90;;;4.60;60.30;;;;;;4987761;28;115206;-82
2024/01/05 00:38:47;;;;;;;4.97;2.53;;;4.70;60.40;;;;;;5005286;28;114606;-82
2024/01/05 00:41:15;;;;;;;4.82;2.80;;;4.70;60.40;;;;;;5005590;28;114949;-82
2024/01/05 00:43:43;;;;;;;4.43;2.60;;;4.70;60.30;;;;;;5005549;28;115134;-81
2024/01/05 00:46:11;;;;;;;5.28;2.88;;;4.70;60.00;;;;;;4987537;28;115032;-82
2024/01/05 00:48:38;;;;;;;4.75;2.58;;;4.70;60.20;;;;;;4988145;28;114667;-82
2024/01/05 00:51:06;;;;;;;5.40;3.00;;;4.70;60.20;;;;;;5004392;28;114722;-82
2024/01/05 00:53:33;;;;;;;5.07;2.60;;;4.70;60.20;;;;;;5004601;28;115781;-81
2024/01/05 00:56:00;;;;;;;5.13;2.70;;;4.70;60.40;;;;;;5005244;28;114588;-81
2024/01/05 00:58:28;;;;;;;5.25;2.80;;;4.70;60.30;;;;;;5004937;28;114714;-81
2024/01/05 01:00:55;;;;;;;6.45;2.70;;;4.70;60.40;;;;;;5005440;28;114474;-80
2024/01/05 01:03:23;;;;;;;4.93;2.90;;;4.80;60.70;;;;;;5003723;28;115520;-83
2024/01/05 01:05:50;;;;;;;5.72;2.90;;;4.80;60.40;;;;;;5003978;28;114810;-82
2024/01/05 01:08:18;;;;;;;5.35;2.85;;;4.90;60.00;;;;;;4971755;28;114310;-82
2024/01/05 01:10:45;;;;;;;4.50;2.60;;;4.90;60.00;;;;;;5004008;28;114727;-81
2024/01/05 01:13:12;;;;;;;4.35;2.60;;;4.90;60.10;;;;;;5003189;28;115063;-81
2024/01/05 01:15:40;;;;;;;5.63;2.97;;;5.00;60.60;;;;;;5003662;28;115478;-81
2024/01/05 01:18:07;;;;;;;5.00;2.72;;;5.00;60.70;;;;;;5005536;28;114572;-82
2024/01/05 01:20:35;;;;;;;4.70;3.13;;;5.10;60.40;;;;;;5004215;28;114897;-82
2024/01/05 01:23:02;;;;;;;6.43;2.75;;;5.10;60.10;;;;;;5004657;28;115085;-81
2024/01/05 01:25:30;;;;;;;5.85;3.50;;;5.10;59.90;;;;;;5003442;28;114757;-81
2024/01/05 01:27:57;;;;;;;7.25;3.35;;;5.20;60.10;;;;;;5004838;28;114604;-81
2024/01/05 01:30:24;;;;;;;6.65;3.85;;;5.10;60.40;;;;;;5004286;28;114404;-81
2024/01/05 01:32:52;;;;;;;7.40;4.22;;;5.00;60.40;;;;;;5003294;28;115193;-81
2024/01/05 01:35:19;;;;;;;6.03;3.35;;;4.90;60.30;;;;;;4986969;28;114463;-80
2024/01/05 01:37:47;;;;;;;6.22;3.95;;;4.90;60.30;;;;;;5003694;28;114411;-80
2024/01/05 01:40:15;;;;;;;5.93;4.30;;;4.90;60.40;;;;;;5004095;28;114589;-80
2024/01/05 01:42:46;;;;;;;5.53;3.58;;;4.90;60.50;;;;;;5003432;28;115156;-80
2024/01/05 01:45:14;;;;;;;5.75;3.60;;;4.80;60.50;;;;;;4987244;28;114652;-81
2024/01/05 01:47:42;;;;;;;6.38;4.30;;;4.80;60.70;;;;;;5003940;28;115158;-80
2024/01/05 01:50:10;;;;;;;7.10;4.00;;;4.80;60.70;;;;;;4987508;28;114583;-80
2024/01/05 01:52:37;;;;;;;6.22;3.75;;;4.80;60.60;;;;;;5004246;28;114361;-81
2024/01/05 01:55:06;;;;;;;6.95;3.42;;;4.90;60.70;;;;;;4970794;28;114631;-81
2024/01/05 01:57:34;;;;;;;5.57;3.50;;;4.90;60.70;;;;;;5005164;28;114543;-81
2024/01/05 02:00:02;;;;;;;6.18;3.97;;;4.90;60.40;;;;;;4971139;28;114471;-81
2024/01/05 02:02:31;;;;;;;6.45;3.35;;;5.00;60.30;;;;;;4986092;28;117317;-81
2024/01/05 02:04:59;;;;;;;5.57;3.70;;;5.00;60.10;;;;;;5004017;28;115243;-81
2024/01/05 02:07:27;;;;;;;6.18;3.55;;;5.10;59.70;;;;;;5003241;28;114678;-81
2024/01/05 02:09:54;;;;;;;7.25;4.20;;;5.00;59.50;;;;;;4987606;28;114501;-82
2024/01/05 02:12:21;;;;;;;6.63;4.00;;;4.90;59.60;;;;;;5006050;28;115005;-82
2024/01/05 02:14:51;;;;;;;6.43;3.70;;;4.90;59.70;;;;;;5006630;28;114497;-81
2024/01/05 02:17:39;;;;;;;6.53;3.20;;;4.90;59.80;;;;;;5009565;28;114542;-81
2024/01/05 02:20:07;;;;;;;5.43;3.20;;;4.90;59.80;;;;;;4981371;28;114329;-81
2024/01/05 02:22:35;;;;;;;4.97;2.92;;;5.00;60.10;;;;;;5012269;28;115250;-81
2024/01/05 02:25:02;;;;;;;4.82;2.97;;;5.00;59.90;;;;;;5007985;28;115157;-82
2024/01/05 02:27:30;;;;;;;5.38;3.10;;;4.90;59.70;;;;;;4974246;28;114661;-81
2024/01/05 02:29:57;;;;;;;4.32;2.78;;;4.80;59.90;;;;;;4991181;28;114620;-81
2024/01/05 02:32:26;;;;;;;4.80;2.97;;;4.70;59.80;;;;;;5007542;28;115650;-82
2024/01/05 02:34:57;;;;;;;4.68;2.80;;;4.60;59.90;;;;;;5007347;28;114665;-82
2024/01/05 02:37:29;;;;;;;5.63;3.00;;;4.60;60.00;;;;;;5008160;28;114391;-81
2024/01/05 02:39:56;;;;;;;4.47;2.80;;;4.60;60.50;;;;;;4990353;28;114889;-82
2024/01/05 02:42:23;;;;;;;8.70;3.22;;;4.60;60.60;;;;;;5005920;28;115311;-81
2024/01/05 02:44:53;;;;;;;5.68;3.08;;;4.70;60.50;;;;;;5006217;28;114836;-81
2024/01/05 02:47:20;;;;;;;5.65;3.05;;;4.70;60.10;;;;;;5006999;28;115307;-82
2024/01/05 02:49:47;;;;;;;5.95;3.30;;;4.70;60.40;;;;;;5006992;28;114710;-81
2024/01/05 02:52:15;;;;;;;5.22;3.33;;;4.80;60.20;;;;;;5005064;28;116225;-81
2024/01/05 02:54:44;;;;;;;5.68;2.95;;;4.80;60.00;;;;;;4989352;28;115290;-80
2024/01/05 02:57:11;;;;;;;5.90;3.75;;;4.80;60.20;;;;;;5023301;28;114510;-80
2024/01/05 02:59:39;;;;;;;6.50;3.30;;;4.80;60.00;;;;;;4989741;28;114602;-80
2024/01/05 03:02:06;;;;;;;4.72;3.17;;;4.80;60.00;;;;;;5006784;28;115666;-82
2024/01/05 03:04:33;;;;;;;4.97;3.38;;;4.80;60.00;;;;;;5005253;28;115773;-80
2024/01/05 03:07:00;;;;;;;5.72;3.13;;;4.80;59.90;;;;;;5007383;28;114312;-82
2024/01/05 03:09:28;;;;;;;6.50;3.60;;;4.80;60.10;;;;;;5008031;28;114547;-81
2024/01/05 03:11:56;;;;;;;6.10;3.47;;;4.90;59.90;;;;;;5005378;28;115418;-81
2024/01/05 03:14:23;;;;;;;6.43;3.58;;;4.90;59.90;;;;;;5006605;28;114796;-79
2024/01/05 03:16:50;;;;;;;5.43;3.53;;;4.90;59.70;;;;;;5007064;28;114738;-80
2024/01/05 03:19:18;;;;;;;7.20;3.63;;;4.90;59.90;;;;;;4989712;28;114841;-80
2024/01/05 03:21:45;;;;;;;4.57;3.33;;;4.90;59.70;;;;;;5006547;28;115606;-80
2024/01/05 03:24:12;;;;;;;5.75;3.67;;;4.90;59.50;;;;;;5006959;28;114743;-79
2024/01/05 03:26:43;;;;;;;6.35;4.15;;;4.90;59.60;;;;;;4990565;28;114758;-79
2024/01/05 03:29:11;;;;;;;5.57;3.58;;;4.90;59.40;;;;;;5022997;28;114577;-80
2024/01/05 03:31:38;;;;;;;7.13;3.33;;;4.80;59.10;;;;;;4972261;28;116037;-80
2024/01/05 03:34:06;;;;;;;5.93;3.30;;;4.70;59.10;;;;;;4988274;28;116161;-80
2024/01/05 03:36:35;;;;;;;5.30;3.33;;;4.50;59.80;;;;;;5007357;28;114494;-80
2024/01/05 03:39:03;;;;;;;5.90;3.38;;;4.50;60.40;;;;;;5006082;28;114476;-80
2024/01/05 03:41:30;;;;;;;8.98;3.80;;;4.50;60.40;;;;;;5005845;28;115419;-80
2024/01/05 03:43:58;;;;;;;4.88;3.13;;;4.60;60.60;;;;;;4988223;28;116106;-80
2024/01/05 03:46:25;;;;;;;5.90;3.58;;;4.60;60.50;;;;;;5007021;28;114509;-80
2024/01/05 03:48:53;;;;;;;6.22;2.75;;;4.60;60.10;;;;;;4955827;28;115118;-80
2024/01/05 03:51:20;;;;;;;8.27;3.50;;;4.50;60.60;;;;;;4988534;28;115038;-80
2024/01/05 03:53:47;;;;;;;5.60;3.47;;;4.50;60.80;;;;;;5006023;28;114917;-80
2024/01/05 03:56:15;;;;;;;6.15;3.53;;;4.40;60.50;;;;;;5005895;28;114461;-80
2024/01/05 03:58:42;;;;;;;5.35;3.38;;;4.30;60.90;;;;;;5006613;28;114545;-80
2024/01/05 04:01:09;;;;;;;7.35;3.90;;;4.30;60.90;;;;;;4988248;28;115238;-81
2024/01/05 04:03:37;;;;;;;5.63;3.45;;;4.30;60.80;;;;;;5006156;28;114592;-80
2024/01/05 04:06:05;;;;;;;9.13;4.00;;;4.10;60.90;;;;;;4982213;28;114389;-80
2024/01/05 04:08:32;;;;;;;6.43;3.90;;;4.10;60.90;;;;;;5028035;28;113535;-80
2024/01/05 04:10:59;;;;;;;6.35;3.70;;;4.00;61.30;;;;;;5010680;28;114509;-80
2024/01/05 04:13:27;;;;;;;7.22;4.20;;;4.10;61.40;;;;;;5006974;28;114702;-81
2024/01/05 04:15:54;;;;;;;8.80;4.75;;;4.10;61.50;;;;;;4989902;28;114410;-81
2024/01/05 04:18:21;;;;;;;7.63;4.55;;;4.10;61.40;;;;;;5006737;28;114663;-81
2024/01/05 04:20:49;;;;;;;8.45;4.50;;;4.20;61.30;;;;;;5005789;28;115265;-81
2024/01/05 04:23:16;;;;;;;6.40;3.67;;;4.20;61.20;;;;;;5006164;28;115159;-81
2024/01/05 04:25:43;;;;;;;6.85;3.63;;;4.30;61.00;;;;;;5006543;28;114758;-81
2024/01/05 04:28:11;;;;;;;6.70;3.85;;;4.30;60.90;;;;;;5004872;28;114525;-80
2024/01/05 04:30:38;;;;;;;5.70;3.45;;;4.20;61.20;;;;;;4987483;28;115237;-81
2024/01/05 04:33:05;;;;;;;7.97;4.38;;;4.20;61.10;;;;;;5003792;28;116703;-81
2024/01/05 04:35:33;;;;;;;7.13;4.03;;;4.20;61.30;;;;;;5004501;28;114817;-81
2024/01/05 04:38:00;;;;;;;7.80;3.72;;;4.20;61.30;;;;;;5005321;28;114703;-80
2024/01/05 04:40:28;;;;;;;5.55;3.50;;;4.20;61.20;;;;;;5005100;28;115029;-81
2024/01/05 04:42:55;;;;;;;10.07;4.85;;;4.30;61.30;;;;;;5004141;28;115718;-81
2024/01/05 04:45:23;;;;;;;9.57;5.10;;;4.30;61.20;;;;;;5004509;28;114762;-81
2024/01/05 04:47:52;;;;;;;8.65;5.00;;;4.30;61.40;;;;;;5005413;28;114356;-81
2024/01/05 04:50:19;;;;;;;9.23;5.35;;;4.30;61.50;;;;;;5003807;28;115195;-82
2024/01/05 04:52:46;;;;;;;10.20;5.90;;;4.20;61.30;;;;;;5005168;28;114540;-82
2024/01/05 04:55:15;;;;;;;7.65;4.57;;;4.10;61.50;;;;;;5005565;28;114414;-82
2024/01/05 04:57:42;;;;;;;8.80;5.25;;;4.00;61.90;;;;;;5005946;28;114575;-81
2024/01/05 05:00:13;;;;;;;8.32;5.97;;;4.00;62.10;;;;;;5004951;28;115122;-81
2024/01/05 05:02:40;;;;;;;10.23;5.43;;;3.90;62.50;;;;;;5004989;28;114655;-81
2024/01/05 05:05:08;;;;;;;10.23;6.43;;;4.00;62.60;;;;;;5005930;28;114691;-80
2024/01/05 05:07:36;;;;;;;12.77;6.93;;;4.00;62.70;;;;;;5006527;28;114777;-82
2024/01/05 05:10:07;;;;;;;15.80;7.90;;;4.10;62.50;;;;;;5004464;28;115410;-81
2024/01/05 05:12:36;;;;;;;11.70;6.82;;;4.10;62.60;;;;;;5005374;28;114892;-80
2024/01/05 05:15:04;;;;;;;14.50;7.65;;;4.10;62.70;;;;;;5005731;28;114338;-81
2024/01/05 05:17:32;;;;;;;14.43;8.07;;;4.10;62.60;;;;;;5005156;28;114737;-81
2024/01/05 05:19:59;;;;;;;11.68;6.22;;;4.20;62.30;;;;;;5004337;28;115343;-81
2024/01/05 05:22:26;;;;;;;9.65;5.35;;;4.30;62.30;;;;;;5003596;28;114562;-81
2024/01/05 05:24:54;;;;;;;8.43;5.43;;;4.30;62.30;;;;;;5003627;28;114738;-81
2024/01/05 05:27:22;;;;;;;9.32;6.57;;;4.30;62.60;;;;;;4987502;28;114527;-81
2024/01/05 05:29:49;;;;;;;12.20;7.60;;;4.30;62.70;;;;;;5003360;28;115770;-80
2024/01/05 05:32:16;;;;;;;10.70;6.35;;;4.20;62.70;;;;;;5004398;28;115897;-81
2024/01/05 05:34:45;;;;;;;10.07;6.50;;;4.30;62.90;;;;;;5004228;28;114348;-81
2024/01/05 05:37:13;;;;;;;9.43;6.40;;;4.30;62.80;;;;;;5004575;28;114614;-80
2024/01/05 05:39:40;;;;;;;9.55;6.18;;;4.30;62.70;;;;;;5003075;28;119095;-81
2024/01/05 05:42:07;;;;;;;9.27;6.55;;;4.30;62.70;;;;;;5003080;28;114670;-81
2024/01/05 05:44:36;;;;;;;10.63;6.65;;;4.20;62.70;;;;;;5003706;28;115185;-81
2024/01/05 05:47:03;;;;;;;10.20;6.05;;;4.10;62.60;;;;;;4971157;28;114498;-80
2024/01/05 05:49:30;;;;;;;11.88;7.07;;;4.10;63.10;;;;;;4986052;28;116265;-80
2024/01/05 05:51:58;;;;;;;10.50;6.82;;;4.10;63.20;;;;;;5004010;28;114806;-82
2024/01/05 05:54:25;;;;;;;9.63;6.00;;;4.10;63.30;;;;;;5016841;28;114636;-80
2024/01/05 05:56:52;;;;;;;11.70;7.43;;;4.20;63.20;;;;;;5006091;28;114947;-80
2024/01/05 05:59:20;;;;;;;12.77;7.05;;;4.20;63.00;;;;;;4972898;28;115391;-80
2024/01/05 06:01:47;;;;;;;9.50;6.32;;;4.00;63.00;;;;;;4986215;28;114675;-81
2024/01/05 06:04:15;;;;;;;13.30;7.10;;;3.80;63.20;;;;;;4985318;28;115228;-80
2024/01/05 06:06:42;;;;;;;12.32;7.05;;;3.60;63.60;;;;;;4971444;28;114549;-80
2024/01/05 06:09:12;;;;;;;12.32;7.35;;;3.50;64.00;;;;;;4986254;28;115158;-81
2024/01/05 06:11:40;;;;;;;13.48;6.95;;;3.40;64.20;;;;;;4999374;28;115135;-81
2024/01/05 06:14:08;;;;;;;11.13;6.65;;;3.40;64.50;;;;;;5010485;28;114979;-81
2024/01/05 06:16:35;;;;;;;9.02;6.10;;;3.40;64.70;;;;;;4970447;28;114557;-80
2024/01/05 06:19:02;;;;;;;11.57;6.80;;;3.40;64.90;;;;;;5013619;28;115113;-80
2024/01/05 06:21:30;;;;;;;13.30;7.45;;;3.50;64.80;;;;;;5013645;28;114829;-80
2024/01/05 06:23:58;;;;;;;10.90;6.50;;;3.60;64.90;;;;;;4954635;28;114618;-81
2024/01/05 06:26:25;;;;;;;11.18;7.38;;;3.70;64.90;;;;;;5027637;27;114659;-81
2024/01/05 06:28:53;;;;;;;11.27;7.80;;;3.70;64.70;;;;;;5002979;28;115278;-81
2024/01/05 06:31:20;;;;;;;10.90;7.35;;;3.60;64.70;;;;;;5013559;27;114753;-82
2024/01/05 06:33:47;;;;;;;13.07;7.57;;;3.60;65.00;;;;;;5013166;28;114554;-82
2024/01/05 06:36:15;;;;;;;10.65;6.75;;;3.60;65.10;;;;;;5016433;28;114646;-82
2024/01/05 06:38:42;;;;;;;11.38;6.65;;;3.60;65.30;;;;;;5006639;28;115132;-82
2024/01/05 06:41:09;;;;;;;10.23;6.70;;;3.60;65.50;;;;;;5008306;28;114729;-81
2024/01/05 06:43:36;;;;;;;11.65;7.18;;;3.60;65.60;;;;;;5013131;27;114699;-81
2024/01/05 06:46:04;;;;;;;10.80;6.57;;;3.70;65.60;;;;;;5015499;28;114551;-81
2024/01/05 06:48:32;;;;;;;13.98;8.38;;;3.70;65.50;;;;;;4983808;28;115688;-81
2024/01/05 06:50:59;;;;;;;11.80;7.85;;;3.70;65.30;;;;;;4988841;28;115549;-81
2024/01/05 06:53:28;;;;;;;15.68;8.57;;;3.80;65.20;;;;;;4984836;28;114609;-82
2024/01/05 06:55:56;;;;;;;12.82;8.00;;;3.80;65.10;;;;;;4984660;28;114531;-82
2024/01/05 06:58:23;;;;;;;13.65;8.60;;;3.80;65.30;;;;;;4991128;28;114993;-82
2024/01/05 07:00:51;;;;;;;13.82;9.23;;;3.70;65.20;;;;;;4993390;28;117311;-82
2024/01/05 07:03:18;;;;;;;13.50;9.50;;;3.70;65.20;;;;;;5004474;28;114362;-82
2024/01/05 07:05:46;;;;;;;15.77;9.52;;;3.70;65.10;;;;;;4986050;28;114657;-81
2024/01/05 07:08:13;;;;;;;15.00;9.75;;;3.70;65.30;;;;;;5003640;28;117141;-81
2024/01/05 07:10:41;;;;;;;14.63;9.30;;;3.70;65.20;;;;;;5007305;28;114676;-82
2024/01/05 07:13:09;;;;;;;15.43;10.23;;;3.80;65.10;;;;;;5006357;28;114608;-82
2024/01/05 07:15:36;;;;;;;16.15;9.57;;;3.80;64.90;;;;;;5006804;28;114507;-81
2024/01/05 07:18:05;;;;;;;16.80;10.48;;;3.70;65.00;;;;;;5005548;28;116159;-84
2024/01/05 07:20:33;;;;;;;14.27;8.20;;;3.60;64.90;;;;;;5006847;28;114691;-83
2024/01/05 07:23:01;;;;;;;18.23;10.00;;;3.30;64.90;;;;;;5008100;28;114582;-82
2024/01/05 07:25:28;;;;;;;15.70;9.43;;;3.10;65.30;;;;;;4989969;28;114650;-82
2024/01/05 07:27:55;;;;;;;15.57;9.65;;;3.20;65.90;;;;;;5004683;28;116248;-82
2024/01/05 07:30:22;;;;;;;18.48;11.13;;;3.20;65.90;;;;;;5006516;28;115242;-82
2024/01/05 07:33:06;;;;;;;18.03;10.67;;;3.30;65.70;;;;;;5005201;28;119307;-82
2024/01/05 07:35:34;;;;;;;18.58;9.55;;;3.20;65.50;;;;;;5007499;28;114307;-81
2024/01/05 07:38:01;;;;;;;17.42;9.20;;;3.10;65.90;;;;;;5006911;28;115565;-82
2024/01/05 07:40:29;;;;;;;15.13;9.10;;;3.00;66.20;;;;;;5005511;28;115751;-82
2024/01/05 07:42:57;;;;;;;14.75;10.20;;;3.00;66.50;;;;;;5007273;28;114567;-82
2024/01/05 07:45:24;;;;;;;19.80;11.10;;;3.10;66.80;;;;;;5009338;28;114987;-82
2024/01/05 07:47:57;;;;;;;17.45;10.35;;;3.20;66.70;;;;;;5024903;28;115372;-82
2024/01/05 07:50:25;;;;;;;18.20;10.75;;;3.30;66.50;;;;;;5026055;28;114298;-82
2024/01/05 07:52:52;;;;;;;19.02;11.02;;;3.40;66.60;;;;;;5010574;28;114960;-80
2024/01/05 07:55:21;;;;;;;16.52;10.48;;;3.60;66.70;;;;;;5007745;28;114660;-81
2024/01/05 07:57:48;;;;;;;19.40;12.38;;;3.70;66.60;;;;;;5004798;28;115470;-82
2024/01/05 08:00:19;;;;;;;22.40;13.88;;;3.70;66.40;;;;;;5003411;28;114662;-81
2024/01/05 08:02:47;;;;;;;20.38;12.93;;;3.90;66.40;;;;;;4987160;28;114728;-81
2024/01/05 08:05:15;;;;;;;23.08;13.20;;;4.00;66.30;;;;;;4960804;28;115636;-82
2024/01/05 08:07:56;;;;;;;23.30;15.13;;;4.10;66.10;;;;;;5001454;28;115701;-80
2024/01/05 08:10:24;;;;;;;24.30;16.30;;;4.10;66.20;;;;;;5005092;28;115926;-81
2024/01/05 08:12:51;;;;;;;22.80;15.77;;;4.30;67.40;;;;;;5006559;28;114236;-81
2024/01/05 08:15:18;;;;;;;28.92;16.08;;;4.40;67.40;;;;;;4992983;28;115702;-82
2024/01/05 08:17:59;;;;;;;27.83;16.27;;;4.60;66.80;;;;;;5012358;27;116595;-81
2024/01/05 08:20:26;;;;;;;25.23;15.07;;;4.60;66.10;;;;;;4987516;28;116158;-80
2024/01/05 08:22:56;;;;;;;28.85;18.55;;;4.60;66.10;;;;;;4997958;28;115587;-82
2024/01/05 08:25:23;;;;;;;31.15;17.70;;;4.70;66.20;;;;;;5008178;28;119395;-81
2024/01/05 08:27:51;;;;;;;35.80;20.77;;;4.80;66.10;;;;;;5001744;28;115092;-81
2024/01/05 08:30:18;;;;;;;34.13;21.05;;;4.80;66.00;;;;;;5012988;27;115016;-81
2024/01/05 08:32:49;;;;;;;37.15;20.48;;;4.90;66.20;;;;;;4992590;28;117843;-81
2024/01/05 08:35:21;;;;;;;35.15;20.95;;;5.00;66.00;;;;;;5012418;27;114993;-81
2024/01/05 08:37:53;;;;;;;32.72;20.40;;;5.10;66.00;;;;;;5003710;28;118362;-80
2024/01/05 08:40:25;;;;;;;30.85;20.48;;;5.20;65.70;;;;;;5006864;28;115718;-81
2024/01/05 08:42:54;;;;;;;35.03;20.27;;;5.30;65.70;;;;;;5020346;27;115585;-80
2024/01/05 08:45:21;;;;;;;34.90;19.42;;;5.40;65.50;;;;;;4993318;28;116931;-81
2024/01/05 08:48:06;;;;;;;35.40;17.65;;;5.40;65.10;;;;;;5019703;28;115208;-80
2024/01/05 08:50:34;;;;;;;34.88;17.17;;;5.40;64.90;;;;;;5014691;28;114663;-80
2024/01/05 08:53:03;;;;;;;32.50;17.63;;;5.50;64.70;;;;;;4995922;28;114640;-80
2024/01/05 08:55:31;;;;;;;30.00;16.75;;;5.50;64.90;;;;;;5012324;27;114663;-81
2024/01/05 08:57:58;;;;;;;29.42;17.95;;;5.60;65.10;;;;;;4992898;28;117755;-80
2024/01/05 09:00:26;;;;;;;31.98;18.00;;;5.70;64.90;;;;;;5014552;28;114609;-80
2024/01/05 09:02:55;;;;;;;31.55;17.95;;;5.70;64.80;;;;;;5014548;28;114723;-81
2024/01/05 09:05:23;;;;;;;36.60;18.48;;;5.80;64.90;;;;;;4998931;28;114963;-80
2024/01/05 09:07:53;;;;;;;31.45;17.10;;;5.80;64.50;;;;;;5014339;28;115869;-81
2024/01/05 09:10:23;;;;;;;35.60;19.23;;;5.90;64.30;;;;;;5010997;28;114557;-80
2024/01/05 09:12:52;;;;;;;35.15;18.95;;;5.90;64.10;;;;;;5010999;28;114927;-81
2024/01/05 09:15:20;;;;;;;31.73;18.55;;;5.90;64.40;;;;;;5011356;27;114762;-80
2024/01/05 09:17:48;;;;;;;32.13;18.40;;;6.00;64.50;;;;;;4983941;28;116276;-80
2024/01/05 09:20:15;;;;;;;32.60;17.60;;;6.10;64.50;;;;;;4984462;28;114657;-81
2024/01/05 09:22:43;;;;;;;29.02;16.38;;;6.20;64.10;;;;;;4983527;28;115099;-80
2024/01/05 09:25:11;;;;;;;31.48;18.65;;;6.20;63.80;;;;;;4983355;28;114551;-81
2024/01/05 09:27:41;;;;;;;31.13;18.25;;;6.40;63.50;;;;;;4983511;28;115220;-80
2024/01/05 09:30:10;;;;;;;31.83;18.35;;;6.50;63.60;;;;;;4981885;28;117567;-81
2024/01/05 09:32:37;;;;;;;30.67;18.10;;;6.60;63.60;;;;;;4984952;28;114442;-82
2024/01/05 09:35:05;;;;;;;27.33;18.02;;;6.60;63.30;;;;;;4985275;28;115151;-82
2024/01/05 09:37:36;;;;;;;26.85;15.50;;;6.70;63.10;;;;;;4966904;28;116374;-80
2024/01/05 09:40:24;;;;;;;27.40;17.25;;;6.80;62.90;;;;;;4992072;28;118261;-82
2024/01/05 09:43:12;;;;;;;25.95;16.70;;;6.80;62.60;;;;;;4962468;28;114370;-81
2024/01/05 09:45:59;;;;;;;27.02;16.00;;;6.90;62.60;;;;;;4981688;28;114934;-80
2024/01/05 09:48:46;;;;;;;24.15;14.07;;;6.90;62.50;;;;;;4969986;28;115731;-81
2024/01/05 09:51:40;;;;;;;20.65;12.90;;;7.10;62.40;;;;;;4999623;28;118199;-80
2024/01/05 09:54:27;;;;;;;22.75;12.48;;;7.20;62.30;;;;;;4961220;28;114830;-82
2024/01/05 09:57:21;;;;;;;24.40;13.05;;;7.20;62.20;;;;;;5003262;28;115628;-82
2024/01/05 10:00:13;;;;;;;24.85;13.10;;;7.40;61.80;;;;;;4975357;28;116758;-82
2024/01/05 10:03:02;;;;;;;19.35;12.13;;;7.50;61.80;;;;;;4969059;28;117647;-81
2024/01/05 10:05:56;;;;;;;20.38;10.88;;;7.50;61.70;;;;;;4957177;28;115466;-81
2024/01/05 10:08:45;;;;;;;14.40;8.98;;;7.60;61.30;;;;;;4959862;28;115876;-81
2024/01/05 10:11:42;;;;;;;13.75;8.32;;;7.70;61.40;;;;;;4989074;28;116696;-83
2024/01/05 10:14:29;;;;;;;11.43;6.45;;;7.70;60.90;;;;;;4983383;28;117932;-83
2024/01/05 10:17:17;;;;;;;10.98;5.70;;;7.80;60.70;;;;;;4983686;28;114685;-80
2024/01/05 10:20:12;;;;;;;6.93;3.22;;;7.90;60.40;;;;;;4970045;28;114757;-80
2024/01/05 10:23:03;;;;;;;6.75;3.38;;;8.00;59.10;;;;;;4954530;28;118312;-82
2024/01/05 10:25:51;;;;;;;4.82;2.42;;;8.00;59.10;;;;;;4968546;28;117789;-82
2024/01/05 10:28:39;;;;;;;6.72;3.65;;;8.00;58.90;;;;;;4955752;28;114642;-81
2024/01/05 10:31:29;;;;;;;7.10;3.28;;;8.00;58.80;;;;;;4981570;28;114788;-81
2024/01/05 10:33:57;;;;;;;7.75;4.40;;;8.00;58.60;;;;;;4984099;28;115016;-81
2024/01/05 10:36:47;;;;;;;6.88;3.45;;;8.00;58.60;;;;;;4996092;28;117663;-81
2024/01/05 10:39:38;;;;;;;6.60;3.30;;;8.10;58.70;;;;;;4977875;28;114656;-81
2024/01/05 10:42:26;;;;;;;6.97;2.72;;;8.00;58.50;;;;;;4989883;28;114928;-82
2024/01/05 10:45:14;;;;;;;6.18;3.38;;;8.00;58.10;;;;;;5000632;28;118695;-81
2024/01/05 10:48:08;;;;;;;5.35;3.00;;;8.00;58.30;;;;;;4989659;28;115901;-81
2024/01/05 10:50:56;;;;;;;5.75;2.58;;;7.90;58.10;;;;;;5006058;27;114799;-82
2024/01/05 10:53:50;;;;;;;4.10;2.00;;;8.00;57.90;;;;;;4969635;28;114734;-81
2024/01/05 10:56:37;;;;;;;4.80;2.25;;;7.90;57.10;;;;;;4998134;28;115977;-82
2024/01/05 10:59:27;;;;;;;6.45;2.10;;;7.80;57.40;;;;;;4985057;28;118318;-82
2024/01/05 11:02:34;;;;;;;6.40;2.30;;;7.80;57.40;;;;;;4997877;28;114709;-81
2024/01/05 11:05:24;;;;;;;7.72;2.67;;;7.90;57.30;;;;;;4996091;27;116296;-83
2024/01/05 11:08:31;;;;;;;6.60;2.30;;;7.90;57.70;;;;;;4963701;28;117499;-81
2024/01/05 11:11:46;;;;;;;7.22;2.50;;;7.90;57.20;;;;;;4975953;28;116868;-81
2024/01/05 11:15:37;;;;;;;5.82;2.72;;;7.90;57.30;;;;;;5005437;28;114692;-82
2024/01/05 11:18:56;;;;;;;7.80;2.45;;;8.00;57.30;;;;;;4912077;28;114634;-81
2024/01/05 11:21:50;;;;;;;6.90;2.30;;;8.00;57.20;;;;;;4917445;28;116323;-81
2024/01/05 11:24:38;;;;;;;5.93;2.78;;;8.00;56.50;;;;;;4970459;28;117792;-82
2024/01/05 11:27:35;;;;;;;7.55;2.92;;;7.90;56.90;;;;;;4985307;28;114797;-81
2024/01/05 11:30:43;;;;;;;8.73;3.58;;;7.70;56.70;;;;;;4959031;28;116959;-81
2024/01/05 11:33:49;;;;;;;8.07;4.18;;;7.70;56.60;;;;;;4973651;28;117531;-81
2024/01/05 11:36:49;;;;;;;7.03;3.33;;;7.50;57.10;;;;;;4993720;28;115665;-82
2024/01/05 11:39:45;;;;;;;9.07;3.30;;;7.50;57.40;;;;;;4998364;28;114385;-82
2024/01/05 11:42:33;;;;;;;5.70;2.65;;;7.50;57.40;;;;;;5005112;28;116524;-82
2024/01/05 11:45:43;;;;;;;5.70;2.72;;;7.40;57.50;;;;;;5024633;28;118495;-81
2024/01/05 11:48:34;;;;;;;7.00;3.42;;;7.40;57.70;;;;;;5023944;28;117616;-82
2024/01/05 11:51:22;;;;;;;5.40;3.10;;;7.20;58.00;;;;;;4997867;28;114903;-79
2024/01/05 11:54:11;;;;;;;5.43;2.50;;;7.30;58.20;;;;;;4990722;28;114566;-82
2024/01/05 11:57:05;;;;;;;6.63;2.60;;;7.30;58.10;;;;;;4971619;28;118176;-80
2024/01/05 11:59:56;;;;;;;8.63;2.90;;;7.30;58.00;;;;;;4979579;28;117590;-80
2024/01/05 12:02:43;;;;;;;5.45;2.85;;;7.20;58.20;;;;;;5003977;28;114472;-82
2024/01/05 12:05:34;;;;;;;8.63;3.53;;;7.20;58.20;;;;;;4984126;28;114717;-81
2024/01/05 12:08:21;;;;;;;7.82;3.30;;;7.20;58.40;;;;;;4983726;28;115750;-81
2024/01/05 12:11:09;;;;;;;10.95;3.95;;;7.20;58.40;;;;;;4984053;28;115311;-80
2024/01/05 12:13:57;;;;;;;6.75;3.63;;;7.10;58.50;;;;;;4979209;28;114638;-82
2024/01/05 12:16:47;;;;;;;8.02;3.30;;;7.00;58.60;;;;;;4985994;28;114990;-80
2024/01/05 12:19:35;;;;;;;8.02;3.58;;;7.00;58.80;;;;;;4980163;28;118374;-81
2024/01/05 12:22:22;;;;;;;8.63;3.63;;;6.90;59.20;;;;;;5003363;28;115702;-81
2024/01/05 12:25:11;;;;;;;7.38;3.45;;;6.90;59.30;;;;;;4977203;28;114752;-81
2024/01/05 12:28:00;;;;;;;9.88;3.70;;;6.90;59.30;;;;;;4990149;28;114530;-81
2024/01/05 12:30:47;;;;;;;7.95;3.03;;;6.90;59.60;;;;;;5003140;28;118024;-81
2024/01/05 12:33:38;;;;;;;7.15;3.30;;;6.90;59.50;;;;;;4983888;28;115196;-80
2024/01/05 12:36:27;;;;;;;9.07;3.55;;;6.80;59.60;;;;;;4969351;28;114806;-80
2024/01/05 12:39:17;;;;;;;10.07;2.70;;;6.90;59.40;;;;;;4996335;28;117182;-81
2024/01/05 12:42:07;;;;;;;6.53;3.53;;;6.80;59.50;;;;;;4993533;28;117835;-81
2024/01/05 12:44:56;;;;;;;9.20;3.10;;;6.70;59.70;;;;;;4968729;28;117969;-81
2024/01/05 12:47:44;;;;;;;8.48;2.83;;;6.70;59.60;;;;;;4985882;28;114544;-82
2024/01/05 12:50:31;;;;;;;8.05;3.10;;;6.70;59.60;;;;;;4971603;28;114685;-81
2024/01/05 12:53:23;;;;;;;6.97;3.10;;;6.60;59.60;;;;;;5001820;28;118224;-81
2024/01/05 12:56:20;;;;;;;6.65;2.90;;;6.70;59.80;;;;;;5000434;28;115164;-83
2024/01/05 12:59:10;;;;;;;7.95;3.53;;;6.70;59.70;;;;;;4976906;28;114832;-82
2024/01/05 13:02:00;;;;;;;7.40;2.92;;;6.60;59.80;;;;;;5003430;28;115579;-82
2024/01/05 13:04:48;;;;;;;7.03;2.78;;;6.60;59.70;;;;;;4974651;28;116114;-82
2024/01/05 13:07:36;;;;;;;6.53;3.97;;;6.60;59.70;;;;;;5003557;28;118515;-82
2024/01/05 13:10:23;;;;;;;6.72;3.30;;;6.60;59.30;;;;;;4963056;28;114705;-83
2024/01/05 13:13:10;;;;;;;7.57;3.10;;;6.50;59.70;;;;;;4990441;28;116510;-82
2024/01/05 13:16:01;;;;;;;8.32;3.10;;;6.50;59.80;;;;;;5002459;28;117496;-81